sensor_id;sensor_type;location;lat;lon;timestamp;P1;durP1;ratioP1;P2;durP2;ratioP2
52542;SDS011;38449;52.696;6.186;2023-04-19T00:01:55;17.27;;;12.93;;
52542;SDS011;38449;52.696;6.186;2023-04-19T00:04:22;17.67;;;12.75;;
52542;SDS011;38449;52.696;6.186;2023-04-19T00:06:48;17.27;;;13.23;;
52542;SDS011;38449;52.696;6.186;2023-04-19T00:09:16;18.50;;;12.15;;
52542;SDS011;38449;52.696;6.186;2023-04-19T00:11:43;18.98;;;13.10;;
52542;SDS011;38449;52.696;6.186;2023-04-19T00:14:09;15.50;;;11.93;;
52542;SDS011;38449;52.696;6.186;2023-04-19T00:16:35;20.23;;;13.75;;
52542;SDS011;38449;52.696;6.186;2023-04-19T00:19:01;17.40;;;13.63;;
52542;SDS011;38449;52.696;6.186;2023-04-19T00:21:28;16.98;;;13.63;;
52542;SDS011;38449;52.696;6.186;2023-04-19T00:23:55;18.00;;;13.90;;
52542;SDS011;38449;52.696;6.186;2023-04-19T00:26:22;17.10;;;13.70;;
52542;SDS011;38449;52.696;6.186;2023-04-19T00:28:48;17.73;;;13.80;;
52542;SDS011;38449;52.696;6.186;2023-04-19T00:31:14;18.20;;;13.25;;
52542;SDS011;38449;52.696;6.186;2023-04-19T00:33:40;22.45;;;14.98;;
52542;SDS011;38449;52.696;6.186;2023-04-19T00:36:07;17.55;;;14.27;;
52542;SDS011;38449;52.696;6.186;2023-04-19T00:38:34;15.07;;;12.85;;
52542;SDS011;38449;52.696;6.186;2023-04-19T00:41:00;17.42;;;13.43;;
52542;SDS011;38449;52.696;6.186;2023-04-19T00:43:26;18.77;;;14.13;;
52542;SDS011;38449;52.696;6.186;2023-04-19T00:45:53;18.95;;;13.27;;
52542;SDS011;38449;52.696;6.186;2023-04-19T00:48:19;17.75;;;13.73;;
52542;SDS011;38449;52.696;6.186;2023-04-19T00:50:45;16.85;;;12.98;;
52542;SDS011;38449;52.696;6.186;2023-04-19T00:53:12;17.73;;;12.90;;
52542;SDS011;38449;52.696;6.186;2023-04-19T00:55:38;16.63;;;13.55;;
52542;SDS011;38449;52.696;6.186;2023-04-19T00:58:06;19.23;;;14.73;;
52542;SDS011;38449;52.696;6.186;2023-04-19T01:00:33;14.93;;;12.25;;
52542;SDS011;38449;52.696;6.186;2023-04-19T01:03:00;14.07;;;11.68;;
52542;SDS011;38449;52.696;6.186;2023-04-19T01:05:26;16.92;;;11.75;;
52542;SDS011;38449;52.696;6.186;2023-04-19T01:07:53;16.42;;;11.40;;
52542;SDS011;38449;52.696;6.186;2023-04-19T01:10:19;15.80;;;12.68;;
52542;SDS011;38449;52.696;6.186;2023-04-19T01:12:45;15.13;;;11.57;;
52542;SDS011;38449;52.696;6.186;2023-04-19T01:15:11;16.27;;;12.65;;
52542;SDS011;38449;52.696;6.186;2023-04-19T01:17:37;15.23;;;12.15;;
52542;SDS011;38449;52.696;6.186;2023-04-19T01:20:05;16.77;;;12.23;;
52542;SDS011;38449;52.696;6.186;2023-04-19T01:22:33;15.18;;;11.32;;
52542;SDS011;38449;52.696;6.186;2023-04-19T01:25:02;16.80;;;11.02;;
52542;SDS011;38449;52.696;6.186;2023-04-19T01:27:29;14.77;;;11.48;;
52542;SDS011;38449;52.696;6.186;2023-04-19T01:29:56;15.00;;;11.48;;
52542;SDS011;38449;52.696;6.186;2023-04-19T01:32:22;13.25;;;10.00;;
52542;SDS011;38449;52.696;6.186;2023-04-19T01:34:51;14.18;;;10.48;;
52542;SDS011;38449;52.696;6.186;2023-04-19T01:37:17;13.18;;;10.98;;
52542;SDS011;38449;52.696;6.186;2023-04-19T01:39:43;16.35;;;10.55;;
52542;SDS011;38449;52.696;6.186;2023-04-19T01:42:10;15.85;;;11.48;;
52542;SDS011;38449;52.696;6.186;2023-04-19T01:44:36;14.27;;;11.27;;
52542;SDS011;38449;52.696;6.186;2023-04-19T01:47:03;13.93;;;10.88;;
52542;SDS011;38449;52.696;6.186;2023-04-19T01:49:30;15.73;;;10.80;;
52542;SDS011;38449;52.696;6.186;2023-04-19T01:51:56;13.63;;;10.00;;
52542;SDS011;38449;52.696;6.186;2023-04-19T01:54:22;13.70;;;10.88;;
52542;SDS011;38449;52.696;6.186;2023-04-19T01:56:48;11.90;;;9.57;;
52542;SDS011;38449;52.696;6.186;2023-04-19T01:59:14;15.88;;;11.15;;
52542;SDS011;38449;52.696;6.186;2023-04-19T02:01:41;14.93;;;10.23;;
52542;SDS011;38449;52.696;6.186;2023-04-19T02:04:10;13.13;;;10.00;;
52542;SDS011;38449;52.696;6.186;2023-04-19T02:06:36;12.02;;;10.10;;
52542;SDS011;38449;52.696;6.186;2023-04-19T02:09:02;11.43;;;9.75;;
52542;SDS011;38449;52.696;6.186;2023-04-19T02:11:29;12.00;;;8.60;;
52542;SDS011;38449;52.696;6.186;2023-04-19T02:13:55;12.05;;;9.38;;
52542;SDS011;38449;52.696;6.186;2023-04-19T02:16:21;11.60;;;8.93;;
52542;SDS011;38449;52.696;6.186;2023-04-19T02:18:47;11.57;;;9.18;;
52542;SDS011;38449;52.696;6.186;2023-04-19T02:21:14;12.52;;;9.43;;
52542;SDS011;38449;52.696;6.186;2023-04-19T02:23:40;13.23;;;9.32;;
52542;SDS011;38449;52.696;6.186;2023-04-19T02:26:06;10.40;;;9.00;;
52542;SDS011;38449;52.696;6.186;2023-04-19T02:28:33;13.20;;;8.32;;
52542;SDS011;38449;52.696;6.186;2023-04-19T02:31:02;11.20;;;9.07;;
52542;SDS011;38449;52.696;6.186;2023-04-19T02:33:30;11.48;;;8.55;;
52542;SDS011;38449;52.696;6.186;2023-04-19T02:35:56;11.80;;;9.40;;
52542;SDS011;38449;52.696;6.186;2023-04-19T02:38:22;10.20;;;9.10;;
52542;SDS011;38449;52.696;6.186;2023-04-19T02:40:49;11.48;;;8.70;;
52542;SDS011;38449;52.696;6.186;2023-04-19T02:43:15;12.32;;;8.60;;
52542;SDS011;38449;52.696;6.186;2023-04-19T02:45:41;11.18;;;9.07;;
52542;SDS011;38449;52.696;6.186;2023-04-19T02:48:07;11.43;;;8.23;;
52542;SDS011;38449;52.696;6.186;2023-04-19T02:50:35;13.20;;;9.40;;
52542;SDS011;38449;52.696;6.186;2023-04-19T02:53:03;10.32;;;7.88;;
52542;SDS011;38449;52.696;6.186;2023-04-19T02:55:30;13.98;;;9.63;;
52542;SDS011;38449;52.696;6.186;2023-04-19T02:57:56;11.43;;;9.07;;
52542;SDS011;38449;52.696;6.186;2023-04-19T03:00:31;12.10;;;8.57;;
52542;SDS011;38449;52.696;6.186;2023-04-19T03:02:57;10.65;;;8.82;;
52542;SDS011;38449;52.696;6.186;2023-04-19T03:05:24;12.02;;;7.82;;
52542;SDS011;38449;52.696;6.186;2023-04-19T03:07:50;11.57;;;9.20;;
52542;SDS011;38449;52.696;6.186;2023-04-19T03:10:16;12.65;;;8.32;;
52542;SDS011;38449;52.696;6.186;2023-04-19T03:12:43;10.88;;;7.72;;
52542;SDS011;38449;52.696;6.186;2023-04-19T03:15:09;10.35;;;8.13;;
52542;SDS011;38449;52.696;6.186;2023-04-19T03:17:36;11.93;;;9.07;;
52542;SDS011;38449;52.696;6.186;2023-04-19T03:20:02;13.57;;;8.02;;
52542;SDS011;38449;52.696;6.186;2023-04-19T03:22:34;11.75;;;8.70;;
52542;SDS011;38449;52.696;6.186;2023-04-19T03:25:00;10.65;;;7.97;;
52542;SDS011;38449;52.696;6.186;2023-04-19T03:27:27;11.27;;;8.25;;
52542;SDS011;38449;52.696;6.186;2023-04-19T03:29:54;10.98;;;7.97;;
52542;SDS011;38449;52.696;6.186;2023-04-19T03:32:21;11.57;;;8.27;;
52542;SDS011;38449;52.696;6.186;2023-04-19T03:34:47;9.18;;;7.38;;
52542;SDS011;38449;52.696;6.186;2023-04-19T03:37:13;11.20;;;7.90;;
52542;SDS011;38449;52.696;6.186;2023-04-19T03:39:40;13.13;;;8.82;;
52542;SDS011;38449;52.696;6.186;2023-04-19T03:42:06;9.23;;;7.35;;
52542;SDS011;38449;52.696;6.186;2023-04-19T03:44:32;11.77;;;8.57;;
52542;SDS011;38449;52.696;6.186;2023-04-19T03:46:59;11.15;;;9.02;;
52542;SDS011;38449;52.696;6.186;2023-04-19T03:49:25;11.27;;;8.73;;
52542;SDS011;38449;52.696;6.186;2023-04-19T03:54:50;11.27;;;9.38;;
52542;SDS011;38449;52.696;6.186;2023-04-19T03:57:16;11.15;;;9.23;;
52542;SDS011;38449;52.696;6.186;2023-04-19T03:59:43;11.52;;;8.85;;
52542;SDS011;38449;52.696;6.186;2023-04-19T04:02:09;10.07;;;7.78;;
52542;SDS011;38449;52.696;6.186;2023-04-19T04:04:35;14.13;;;9.63;;
52542;SDS011;38449;52.696;6.186;2023-04-19T04:07:01;11.88;;;9.13;;
52542;SDS011;38449;52.696;6.186;2023-04-19T04:09:28;11.27;;;7.97;;
52542;SDS011;38449;52.696;6.186;2023-04-19T04:11:54;12.18;;;9.30;;
52542;SDS011;38449;52.696;6.186;2023-04-19T04:14:20;11.52;;;8.75;;
52542;SDS011;38449;52.696;6.186;2023-04-19T04:16:47;12.55;;;9.52;;
52542;SDS011;38449;52.696;6.186;2023-04-19T04:19:13;11.98;;;9.20;;
52542;SDS011;38449;52.696;6.186;2023-04-19T04:21:39;13.05;;;8.93;;
52542;SDS011;38449;52.696;6.186;2023-04-19T04:24:05;13.35;;;9.25;;
52542;SDS011;38449;52.696;6.186;2023-04-19T04:26:32;10.88;;;9.18;;
52542;SDS011;38449;52.696;6.186;2023-04-19T04:29:00;13.32;;;8.93;;
52542;SDS011;38449;52.696;6.186;2023-04-19T04:31:29;14.60;;;9.93;;
52542;SDS011;38449;52.696;6.186;2023-04-19T04:33:56;13.10;;;9.45;;
52542;SDS011;38449;52.696;6.186;2023-04-19T04:36:32;12.98;;;9.43;;
52542;SDS011;38449;52.696;6.186;2023-04-19T04:41:59;11.75;;;9.20;;
52542;SDS011;38449;52.696;6.186;2023-04-19T04:44:26;11.88;;;8.43;;
52542;SDS011;38449;52.696;6.186;2023-04-19T04:46:53;11.43;;;7.95;;
52542;SDS011;38449;52.696;6.186;2023-04-19T04:49:20;11.07;;;8.18;;
52542;SDS011;38449;52.696;6.186;2023-04-19T04:51:46;12.95;;;9.63;;
52542;SDS011;38449;52.696;6.186;2023-04-19T04:54:12;10.45;;;8.00;;
52542;SDS011;38449;52.696;6.186;2023-04-19T04:56:38;11.02;;;8.43;;
52542;SDS011;38449;52.696;6.186;2023-04-19T04:59:11;11.20;;;9.05;;
52542;SDS011;38449;52.696;6.186;2023-04-19T05:01:37;12.38;;;9.85;;
52542;SDS011;38449;52.696;6.186;2023-04-19T05:04:03;11.75;;;9.25;;
52542;SDS011;38449;52.696;6.186;2023-04-19T05:06:30;13.80;;;8.80;;
52542;SDS011;38449;52.696;6.186;2023-04-19T05:08:56;9.43;;;7.25;;
52542;SDS011;38449;52.696;6.186;2023-04-19T05:11:22;11.35;;;8.38;;
52542;SDS011;38449;52.696;6.186;2023-04-19T05:13:49;9.68;;;7.38;;
52542;SDS011;38449;52.696;6.186;2023-04-19T05:16:15;9.90;;;7.45;;
52542;SDS011;38449;52.696;6.186;2023-04-19T05:18:41;8.93;;;6.47;;
52542;SDS011;38449;52.696;6.186;2023-04-19T05:21:07;10.60;;;6.72;;
52542;SDS011;38449;52.696;6.186;2023-04-19T05:23:36;11.15;;;6.85;;
52542;SDS011;38449;52.696;6.186;2023-04-19T05:26:02;10.23;;;7.07;;
52542;SDS011;38449;52.696;6.186;2023-04-19T05:28:29;11.50;;;7.90;;
52542;SDS011;38449;52.696;6.186;2023-04-19T05:30:55;9.60;;;7.05;;
52542;SDS011;38449;52.696;6.186;2023-04-19T05:33:21;11.23;;;6.47;;
52542;SDS011;38449;52.696;6.186;2023-04-19T05:35:47;9.27;;;7.60;;
52542;SDS011;38449;52.696;6.186;2023-04-19T05:38:14;9.98;;;6.68;;
52542;SDS011;38449;52.696;6.186;2023-04-19T05:40:40;10.07;;;7.03;;
52542;SDS011;38449;52.696;6.186;2023-04-19T05:43:06;8.52;;;6.68;;
52542;SDS011;38449;52.696;6.186;2023-04-19T05:45:32;11.60;;;6.63;;
52542;SDS011;38449;52.696;6.186;2023-04-19T05:47:58;10.57;;;7.88;;
52542;SDS011;38449;52.696;6.186;2023-04-19T05:50:25;8.95;;;6.55;;
52542;SDS011;38449;52.696;6.186;2023-04-19T05:52:51;8.50;;;6.55;;
52542;SDS011;38449;52.696;6.186;2023-04-19T05:55:17;10.05;;;7.40;;
52542;SDS011;38449;52.696;6.186;2023-04-19T05:57:44;10.05;;;6.90;;
52542;SDS011;38449;52.696;6.186;2023-04-19T06:00:10;6.97;;;6.25;;
52542;SDS011;38449;52.696;6.186;2023-04-19T06:02:37;9.60;;;6.93;;
52542;SDS011;38449;52.696;6.186;2023-04-19T06:05:03;8.85;;;6.28;;
52542;SDS011;38449;52.696;6.186;2023-04-19T06:07:31;9.65;;;7.22;;
52542;SDS011;38449;52.696;6.186;2023-04-19T06:09:57;10.45;;;6.65;;
52542;SDS011;38449;52.696;6.186;2023-04-19T06:12:23;10.98;;;6.30;;
52542;SDS011;38449;52.696;6.186;2023-04-19T06:14:50;7.90;;;6.35;;
52542;SDS011;38449;52.696;6.186;2023-04-19T06:17:17;8.25;;;6.15;;
52542;SDS011;38449;52.696;6.186;2023-04-19T06:19:52;9.70;;;6.30;;
52542;SDS011;38449;52.696;6.186;2023-04-19T06:22:19;9.00;;;5.97;;
52542;SDS011;38449;52.696;6.186;2023-04-19T06:24:46;10.20;;;5.28;;
52542;SDS011;38449;52.696;6.186;2023-04-19T06:27:14;6.63;;;5.22;;
52542;SDS011;38449;52.696;6.186;2023-04-19T06:29:41;6.78;;;5.70;;
52542;SDS011;38449;52.696;6.186;2023-04-19T06:32:07;7.15;;;4.90;;
52542;SDS011;38449;52.696;6.186;2023-04-19T06:34:34;8.20;;;5.20;;
52542;SDS011;38449;52.696;6.186;2023-04-19T06:37:00;7.35;;;5.28;;
52542;SDS011;38449;52.696;6.186;2023-04-19T06:39:26;7.30;;;5.00;;
52542;SDS011;38449;52.696;6.186;2023-04-19T06:41:53;5.82;;;4.75;;
52542;SDS011;38449;52.696;6.186;2023-04-19T06:44:19;8.43;;;4.78;;
52542;SDS011;38449;52.696;6.186;2023-04-19T06:46:45;7.05;;;5.60;;
52542;SDS011;38449;52.696;6.186;2023-04-19T06:49:11;9.10;;;4.93;;
52542;SDS011;38449;52.696;6.186;2023-04-19T06:51:38;7.57;;;4.97;;
52542;SDS011;38449;52.696;6.186;2023-04-19T06:54:05;6.35;;;4.50;;
52542;SDS011;38449;52.696;6.186;2023-04-19T06:56:37;7.82;;;5.50;;
52542;SDS011;38449;52.696;6.186;2023-04-19T06:59:05;6.05;;;5.15;;
52542;SDS011;38449;52.696;6.186;2023-04-19T07:01:31;7.00;;;4.80;;
52542;SDS011;38449;52.696;6.186;2023-04-19T07:03:58;6.97;;;5.05;;
52542;SDS011;38449;52.696;6.186;2023-04-19T07:06:24;7.03;;;4.45;;
52542;SDS011;38449;52.696;6.186;2023-04-19T07:08:51;6.80;;;4.78;;
52542;SDS011;38449;52.696;6.186;2023-04-19T07:11:18;8.43;;;5.13;;
52542;SDS011;38449;52.696;6.186;2023-04-19T07:13:44;5.97;;;5.30;;
52542;SDS011;38449;52.696;6.186;2023-04-19T07:16:10;6.38;;;4.32;;
52542;SDS011;38449;52.696;6.186;2023-04-19T07:18:38;6.70;;;3.72;;
52542;SDS011;38449;52.696;6.186;2023-04-19T07:24:27;6.38;;;3.83;;
52542;SDS011;38449;52.696;6.186;2023-04-19T07:26:55;4.90;;;3.90;;
52542;SDS011;38449;52.696;6.186;2023-04-19T07:29:22;5.28;;;3.85;;
52542;SDS011;38449;52.696;6.186;2023-04-19T07:31:48;5.97;;;4.05;;
52542;SDS011;38449;52.696;6.186;2023-04-19T07:34:15;6.32;;;3.78;;
52542;SDS011;38449;52.696;6.186;2023-04-19T07:36:41;7.90;;;3.85;;
52542;SDS011;38449;52.696;6.186;2023-04-19T07:39:07;5.97;;;3.33;;
52542;SDS011;38449;52.696;6.186;2023-04-19T07:41:34;4.18;;;2.90;;
52542;SDS011;38449;52.696;6.186;2023-04-19T07:44:00;3.70;;;3.15;;
52542;SDS011;38449;52.696;6.186;2023-04-19T07:46:26;5.05;;;2.75;;
52542;SDS011;38449;52.696;6.186;2023-04-19T07:48:52;4.55;;;3.17;;
52542;SDS011;38449;52.696;6.186;2023-04-19T07:51:19;5.65;;;2.83;;
52542;SDS011;38449;52.696;6.186;2023-04-19T07:53:45;3.85;;;2.65;;
52542;SDS011;38449;52.696;6.186;2023-04-19T07:56:12;4.38;;;3.00;;
52542;SDS011;38449;52.696;6.186;2023-04-19T07:58:40;3.65;;;2.63;;
52542;SDS011;38449;52.696;6.186;2023-04-19T08:01:15;4.07;;;2.72;;
52542;SDS011;38449;52.696;6.186;2023-04-19T08:03:41;4.15;;;2.60;;
52542;SDS011;38449;52.696;6.186;2023-04-19T08:06:13;3.47;;;2.80;;
52542;SDS011;38449;52.696;6.186;2023-04-19T08:08:39;5.10;;;3.03;;
52542;SDS011;38449;52.696;6.186;2023-04-19T08:11:05;4.20;;;2.55;;
52542;SDS011;38449;52.696;6.186;2023-04-19T08:13:32;3.75;;;2.42;;
52542;SDS011;38449;52.696;6.186;2023-04-19T08:15:58;5.47;;;2.40;;
52542;SDS011;38449;52.696;6.186;2023-04-19T08:18:24;5.10;;;2.42;;
52542;SDS011;38449;52.696;6.186;2023-04-19T08:20:51;4.88;;;2.88;;
52542;SDS011;38449;52.696;6.186;2023-04-19T08:23:17;3.33;;;2.10;;
52542;SDS011;38449;52.696;6.186;2023-04-19T08:25:44;3.60;;;2.50;;
52542;SDS011;38449;52.696;6.186;2023-04-19T08:28:10;4.40;;;2.47;;
52542;SDS011;38449;52.696;6.186;2023-04-19T08:30:37;4.82;;;2.33;;
52542;SDS011;38449;52.696;6.186;2023-04-19T08:33:03;5.32;;;2.40;;
52542;SDS011;38449;52.696;6.186;2023-04-19T08:35:29;3.30;;;2.20;;
52542;SDS011;38449;52.696;6.186;2023-04-19T08:37:55;3.55;;;2.22;;
52542;SDS011;38449;52.696;6.186;2023-04-19T08:40:22;4.25;;;2.78;;
52542;SDS011;38449;52.696;6.186;2023-04-19T08:42:48;3.60;;;2.40;;
52542;SDS011;38449;52.696;6.186;2023-04-19T08:45:15;4.38;;;2.50;;
52542;SDS011;38449;52.696;6.186;2023-04-19T08:47:41;3.08;;;2.20;;
52542;SDS011;38449;52.696;6.186;2023-04-19T08:50:09;5.05;;;2.30;;
52542;SDS011;38449;52.696;6.186;2023-04-19T08:52:35;3.67;;;2.60;;
52542;SDS011;38449;52.696;6.186;2023-04-19T08:55:03;4.90;;;3.03;;
52542;SDS011;38449;52.696;6.186;2023-04-19T08:57:31;3.80;;;2.33;;
52542;SDS011;38449;52.696;6.186;2023-04-19T08:59:58;4.97;;;3.13;;
52542;SDS011;38449;52.696;6.186;2023-04-19T09:02:25;3.55;;;2.72;;
52542;SDS011;38449;52.696;6.186;2023-04-19T09:04:51;4.80;;;3.00;;
52542;SDS011;38449;52.696;6.186;2023-04-19T09:07:21;4.72;;;2.83;;
52542;SDS011;38449;52.696;6.186;2023-04-19T09:10:11;5.43;;;2.90;;
52542;SDS011;38449;52.696;6.186;2023-04-19T09:12:39;4.57;;;3.03;;
52542;SDS011;38449;52.696;6.186;2023-04-19T09:15:07;4.18;;;3.20;;
52542;SDS011;38449;52.696;6.186;2023-04-19T09:17:34;4.50;;;2.90;;
52542;SDS011;38449;52.696;6.186;2023-04-19T09:20:01;4.95;;;3.10;;
52542;SDS011;38449;52.696;6.186;2023-04-19T09:22:29;7.78;;;3.28;;
52542;SDS011;38449;52.696;6.186;2023-04-19T09:24:57;4.18;;;3.10;;
52542;SDS011;38449;52.696;6.186;2023-04-19T09:27:27;4.57;;;3.17;;
52542;SDS011;38449;52.696;6.186;2023-04-19T09:29:57;4.78;;;3.28;;
52542;SDS011;38449;52.696;6.186;2023-04-19T09:32:25;5.63;;;3.78;;
52542;SDS011;38449;52.696;6.186;2023-04-19T09:34:56;5.70;;;3.72;;
52542;SDS011;38449;52.696;6.186;2023-04-19T09:37:24;6.50;;;3.35;;
52542;SDS011;38449;52.696;6.186;2023-04-19T09:39:53;5.88;;;3.20;;
52542;SDS011;38449;52.696;6.186;2023-04-19T09:42:20;3.88;;;3.20;;
52542;SDS011;38449;52.696;6.186;2023-04-19T09:45:04;4.43;;;2.85;;
52542;SDS011;38449;52.696;6.186;2023-04-19T09:50:29;3.88;;;2.67;;
52542;SDS011;38449;52.696;6.186;2023-04-19T09:52:56;5.63;;;4.07;;
52542;SDS011;38449;52.696;6.186;2023-04-19T09:55:23;5.28;;;3.35;;
52542;SDS011;38449;52.696;6.186;2023-04-19T09:57:51;4.45;;;3.28;;
52542;SDS011;38449;52.696;6.186;2023-04-19T10:00:18;3.58;;;2.97;;
52542;SDS011;38449;52.696;6.186;2023-04-19T10:02:46;5.07;;;3.70;;
52542;SDS011;38449;52.696;6.186;2023-04-19T10:05:20;4.75;;;2.90;;
52542;SDS011;38449;52.696;6.186;2023-04-19T10:07:50;5.72;;;3.33;;
52542;SDS011;38449;52.696;6.186;2023-04-19T10:10:17;5.68;;;3.40;;
52542;SDS011;38449;52.696;6.186;2023-04-19T10:12:47;4.70;;;4.03;;
52542;SDS011;38449;52.696;6.186;2023-04-19T10:15:15;4.38;;;3.10;;
52542;SDS011;38449;52.696;6.186;2023-04-19T10:17:43;4.72;;;2.95;;
52542;SDS011;38449;52.696;6.186;2023-04-19T10:20:13;4.63;;;3.50;;
52542;SDS011;38449;52.696;6.186;2023-04-19T10:22:45;6.53;;;3.10;;
52542;SDS011;38449;52.696;6.186;2023-04-19T10:25:12;3.90;;;3.00;;
52542;SDS011;38449;52.696;6.186;2023-04-19T10:27:40;5.07;;;3.20;;
52542;SDS011;38449;52.696;6.186;2023-04-19T10:30:18;4.75;;;3.53;;
52542;SDS011;38449;52.696;6.186;2023-04-19T10:32:55;5.55;;;3.10;;
52542;SDS011;38449;52.696;6.186;2023-04-19T10:35:23;5.70;;;3.03;;
52542;SDS011;38449;52.696;6.186;2023-04-19T10:38:10;4.53;;;2.63;;
52542;SDS011;38449;52.696;6.186;2023-04-19T10:43:21;6.35;;;3.28;;
52542;SDS011;38449;52.696;6.186;2023-04-19T10:45:51;4.13;;;2.80;;
52542;SDS011;38449;52.696;6.186;2023-04-19T10:56:16;4.25;;;3.17;;
52542;SDS011;38449;52.696;6.186;2023-04-19T11:01:30;5.78;;;2.80;;
52542;SDS011;38449;52.696;6.186;2023-04-19T11:07:15;3.50;;;2.88;;
52542;SDS011;38449;52.696;6.186;2023-04-19T11:09:46;3.95;;;2.58;;
52542;SDS011;38449;52.696;6.186;2023-04-19T11:12:14;3.72;;;2.67;;
52542;SDS011;38449;52.696;6.186;2023-04-19T11:17:19;4.22;;;2.60;;
52542;SDS011;38449;52.696;6.186;2023-04-19T11:19:53;4.57;;;2.97;;
52542;SDS011;38449;52.696;6.186;2023-04-19T11:25:04;6.82;;;3.67;;
52542;SDS011;38449;52.696;6.186;2023-04-19T11:27:32;3.85;;;2.70;;
52542;SDS011;38449;52.696;6.186;2023-04-19T11:30:03;5.28;;;2.80;;
52542;SDS011;38449;52.696;6.186;2023-04-19T11:32:34;6.28;;;3.47;;
52542;SDS011;38449;52.696;6.186;2023-04-19T11:35:05;4.72;;;2.80;;
52542;SDS011;38449;52.696;6.186;2023-04-19T11:37:33;4.53;;;2.78;;
52542;SDS011;38449;52.696;6.186;2023-04-19T11:40:01;4.22;;;2.80;;
52542;SDS011;38449;52.696;6.186;2023-04-19T11:42:27;3.67;;;2.90;;
52542;SDS011;38449;52.696;6.186;2023-04-19T11:44:54;4.78;;;2.80;;
52542;SDS011;38449;52.696;6.186;2023-04-19T11:47:22;5.72;;;2.83;;
52542;SDS011;38449;52.696;6.186;2023-04-19T11:49:48;9.18;;;3.25;;
52542;SDS011;38449;52.696;6.186;2023-04-19T11:52:22;5.00;;;3.25;;
52542;SDS011;38449;52.696;6.186;2023-04-19T11:54:50;3.50;;;2.55;;
52542;SDS011;38449;52.696;6.186;2023-04-19T11:57:29;5.53;;;3.00;;
52542;SDS011;38449;52.696;6.186;2023-04-19T12:00:05;7.28;;;3.03;;
52542;SDS011;38449;52.696;6.186;2023-04-19T12:02:37;4.00;;;2.78;;
52542;SDS011;38449;52.696;6.186;2023-04-19T12:05:11;4.10;;;2.80;;
52542;SDS011;38449;52.696;6.186;2023-04-19T12:10:28;3.67;;;2.75;;
52542;SDS011;38449;52.696;6.186;2023-04-19T12:12:57;3.75;;;2.83;;
52542;SDS011;38449;52.696;6.186;2023-04-19T12:15:43;3.47;;;2.70;;
52542;SDS011;38449;52.696;6.186;2023-04-19T12:18:11;4.90;;;2.55;;
52542;SDS011;38449;52.696;6.186;2023-04-19T12:20:43;3.58;;;2.80;;
52542;SDS011;38449;52.696;6.186;2023-04-19T12:23:15;3.47;;;2.45;;
52542;SDS011;38449;52.696;6.186;2023-04-19T12:25:43;5.43;;;2.92;;
52542;SDS011;38449;52.696;6.186;2023-04-19T12:28:11;4.35;;;2.60;;
52542;SDS011;38449;52.696;6.186;2023-04-19T12:30:38;4.78;;;2.90;;
52542;SDS011;38449;52.696;6.186;2023-04-19T12:33:05;3.28;;;2.67;;
52542;SDS011;38449;52.696;6.186;2023-04-19T12:35:32;5.35;;;2.58;;
52542;SDS011;38449;52.696;6.186;2023-04-19T12:38:00;4.57;;;2.50;;
52542;SDS011;38449;52.696;6.186;2023-04-19T12:40:27;5.20;;;2.47;;
52542;SDS011;38449;52.696;6.186;2023-04-19T12:42:55;4.30;;;2.97;;
52542;SDS011;38449;52.696;6.186;2023-04-19T12:45:21;5.28;;;2.90;;
52542;SDS011;38449;52.696;6.186;2023-04-19T12:47:47;4.85;;;2.70;;
52542;SDS011;38449;52.696;6.186;2023-04-19T12:50:14;6.47;;;3.08;;
52542;SDS011;38449;52.696;6.186;2023-04-19T12:52:41;7.25;;;3.08;;
52542;SDS011;38449;52.696;6.186;2023-04-19T12:55:14;3.78;;;3.00;;
52542;SDS011;38449;52.696;6.186;2023-04-19T13:00:07;4.25;;;3.03;;
52542;SDS011;38449;52.696;6.186;2023-04-19T13:02:35;3.95;;;3.00;;
52542;SDS011;38449;52.696;6.186;2023-04-19T13:05:01;4.47;;;3.15;;
52542;SDS011;38449;52.696;6.186;2023-04-19T13:07:29;4.03;;;2.80;;
52542;SDS011;38449;52.696;6.186;2023-04-19T13:09:56;4.43;;;3.33;;
52542;SDS011;38449;52.696;6.186;2023-04-19T13:12:22;3.88;;;3.00;;
52542;SDS011;38449;52.696;6.186;2023-04-19T13:14:48;4.90;;;3.75;;
52542;SDS011;38449;52.696;6.186;2023-04-19T13:17:17;5.32;;;3.10;;
52542;SDS011;38449;52.696;6.186;2023-04-19T13:19:44;4.97;;;3.53;;
52542;SDS011;38449;52.696;6.186;2023-04-19T13:22:11;4.90;;;3.35;;
52542;SDS011;38449;52.696;6.186;2023-04-19T13:24:37;3.80;;;3.17;;
52542;SDS011;38449;52.696;6.186;2023-04-19T13:27:04;5.65;;;3.40;;
52542;SDS011;38449;52.696;6.186;2023-04-19T13:29:30;4.70;;;3.85;;
52542;SDS011;38449;52.696;6.186;2023-04-19T13:31:56;6.10;;;4.15;;
52542;SDS011;38449;52.696;6.186;2023-04-19T13:34:23;4.82;;;3.35;;
52542;SDS011;38449;52.696;6.186;2023-04-19T13:36:49;5.35;;;3.83;;
52542;SDS011;38449;52.696;6.186;2023-04-19T13:39:16;5.53;;;3.50;;
52542;SDS011;38449;52.696;6.186;2023-04-19T13:41:42;5.63;;;3.35;;
52542;SDS011;38449;52.696;6.186;2023-04-19T13:44:15;5.85;;;3.58;;
52542;SDS011;38449;52.696;6.186;2023-04-19T13:46:41;14.35;;;3.80;;
52542;SDS011;38449;52.696;6.186;2023-04-19T13:49:14;5.75;;;3.78;;
52542;SDS011;38449;52.696;6.186;2023-04-19T13:51:41;8.13;;;4.63;;
52542;SDS011;38449;52.696;6.186;2023-04-19T13:54:07;4.38;;;3.45;;
52542;SDS011;38449;52.696;6.186;2023-04-19T13:56:33;4.18;;;3.13;;
52542;SDS011;38449;52.696;6.186;2023-04-19T13:59:00;5.93;;;3.60;;
52542;SDS011;38449;52.696;6.186;2023-04-19T14:01:26;4.25;;;3.30;;
52542;SDS011;38449;52.696;6.186;2023-04-19T14:03:53;5.55;;;3.28;;
52542;SDS011;38449;52.696;6.186;2023-04-19T14:06:19;5.63;;;3.50;;
52542;SDS011;38449;52.696;6.186;2023-04-19T14:08:46;4.50;;;3.60;;
52542;SDS011;38449;52.696;6.186;2023-04-19T14:11:12;5.35;;;3.30;;
52542;SDS011;38449;52.696;6.186;2023-04-19T14:13:38;4.40;;;3.40;;
52542;SDS011;38449;52.696;6.186;2023-04-19T14:16:04;5.13;;;3.42;;
52542;SDS011;38449;52.696;6.186;2023-04-19T14:18:31;4.78;;;2.97;;
52542;SDS011;38449;52.696;6.186;2023-04-19T14:20:57;5.40;;;2.97;;
52542;SDS011;38449;52.696;6.186;2023-04-19T14:23:23;3.55;;;3.03;;
52542;SDS011;38449;52.696;6.186;2023-04-19T14:25:50;6.15;;;3.90;;
52542;SDS011;38449;52.696;6.186;2023-04-19T14:28:16;4.55;;;3.33;;
52542;SDS011;38449;52.696;6.186;2023-04-19T14:30:42;5.95;;;3.70;;
52542;SDS011;38449;52.696;6.186;2023-04-19T14:33:08;4.50;;;3.15;;
52542;SDS011;38449;52.696;6.186;2023-04-19T14:35:35;8.75;;;3.25;;
52542;SDS011;38449;52.696;6.186;2023-04-19T14:38:01;5.82;;;3.40;;
52542;SDS011;38449;52.696;6.186;2023-04-19T14:40:27;4.00;;;3.08;;
52542;SDS011;38449;52.696;6.186;2023-04-19T14:42:54;4.43;;;3.10;;
52542;SDS011;38449;52.696;6.186;2023-04-19T14:45:20;6.10;;;3.28;;
52542;SDS011;38449;52.696;6.186;2023-04-19T14:47:46;6.25;;;3.72;;
52542;SDS011;38449;52.696;6.186;2023-04-19T14:50:13;6.00;;;3.20;;
52542;SDS011;38449;52.696;6.186;2023-04-19T14:52:39;5.30;;;3.40;;
52542;SDS011;38449;52.696;6.186;2023-04-19T14:55:06;5.97;;;3.38;;
52542;SDS011;38449;52.696;6.186;2023-04-19T14:57:33;7.05;;;3.33;;
52542;SDS011;38449;52.696;6.186;2023-04-19T14:59:59;6.63;;;3.25;;
52542;SDS011;38449;52.696;6.186;2023-04-19T15:02:26;4.20;;;3.30;;
52542;SDS011;38449;52.696;6.186;2023-04-19T15:04:52;5.32;;;3.35;;
52542;SDS011;38449;52.696;6.186;2023-04-19T15:07:19;8.13;;;3.47;;
52542;SDS011;38449;52.696;6.186;2023-04-19T15:09:46;10.82;;;3.63;;
52542;SDS011;38449;52.696;6.186;2023-04-19T15:12:12;8.82;;;3.40;;
52542;SDS011;38449;52.696;6.186;2023-04-19T15:14:38;5.13;;;3.25;;
52542;SDS011;38449;52.696;6.186;2023-04-19T15:17:05;5.10;;;3.30;;
52542;SDS011;38449;52.696;6.186;2023-04-19T15:19:31;5.88;;;3.00;;
52542;SDS011;38449;52.696;6.186;2023-04-19T15:21:57;5.30;;;3.60;;